METAR Data
IDs: Format: Raw Decoded Include TAF

Data at: 2149 UTC 24 Mar 2019

K11R 242135Z AUTO 19010KT 10SM SCT042 SCT050 28/18 A3002 RMK AO2 T02810184
K11R 242115Z AUTO 19009G14KT 10SM SCT050 28/18 A3002 RMK AO2 T02780176
K11R 242055Z AUTO 19010KT 10SM SCT039 SCT050 28/18 A3003 RMK AO2 T02820181
K11R 242035Z AUTO 21009KT 10SM SCT039 BKN050 28/18 A3004 RMK AO2 T02780179
K11R 242015Z AUTO 22008KT 10SM SCT037 BKN050 28/18 A3004 RMK AO2 T02760182
K11R 241955Z AUTO 18007KT 10SM SCT037 BKN050 27/18 A3005 RMK AO2 T02720182
K11R 241935Z AUTO 18007KT 150V220 10SM SCT033 SCT039 BKN048 27/19 A3005 RMK AO2 T02720187
K11R 241915Z AUTO 15007KT 10SM SCT030 SCT035 BKN048 27/19 A3006 RMK AO2 T02660185
K11R 241855Z AUTO 19008KT 160V230 10SM BKN030 OVC042 25/18 A3008 RMK AO2 T02540182
K11R 241835Z AUTO 21009G14KT 10SM SCT030 OVC041 25/18 A3009 RMK AO2 T02540182
K11R 241815Z AUTO 20010G14KT 10SM SCT026 SCT031 BKN039 25/18 A3009 RMK AO2 T02510184
K11R 241755Z AUTO 21009KT 10SM SCT020 BKN033 25/19 A3010 RMK AO2 T02510188 10251 20175
K11R 241735Z AUTO 21008KT 10SM OVC018 24/19 A3010 RMK AO2 T02380189
K11R 241715Z AUTO 20005KT 10SM BKN018 OVC025 24/19 A3011 RMK AO2 T02370189
K11R 241655Z AUTO 21007KT 10SM BKN016 OVC022 23/19 A3012 RMK AO2 T02270188
K11R 241635Z AUTO 19010G14KT 10SM OVC016 23/19 A3012 RMK AO2 T02300189
K11R 241615Z AUTO 20008KT 170V230 10SM OVC014 23/19 A3012 RMK AO2 T02270190
K11R 241555Z AUTO 18008KT 10SM OVC012 22/19 A3013 RMK AO2 T02200189
K11R 241535Z AUTO 20009KT 10SM OVC010 22/20 A3013 RMK AO2 T02150198
K11R 241515Z AUTO 19009KT 10SM OVC010 21/20 A3013 RMK AO2 T02120197
K11R 241455Z AUTO 19010KT 10SM OVC006 21/20 A3013 RMK AO2 T02060195
K11R 241435Z AUTO 19007KT 10SM OVC006 20/19 A3013 RMK AO2 T01990192
K11R 241415Z AUTO 19007KT 10SM OVC006 19/19 A3012 RMK AO2 T01940191
K11R 241355Z AUTO 17006KT 7SM OVC006 19/19 A3011 RMK AO2 T01880187
K11R 241335Z AUTO 17004KT 7SM OVC006 18/18 A3011 RMK AO2 T01840184
K11R 241315Z AUTO 16003KT 7SM OVC006 18/18 A3011 RMK AO2 T01800180
K11R 241255Z AUTO 15004KT 10SM OVC006 18/18 A3010 RMK AO2 T01770177
K11R 241235Z AUTO 16003KT 10SM OVC006 18/18 A3010 RMK AO2 T01760175
K11R 241215Z AUTO 00000KT 10SM OVC008 18/18 A3010 RMK AO2 T01760175
K11R 241155Z AUTO 00000KT 10SM OVC008 18/17 A3010 RMK AO2 T01750173 10177 20165
K11R 241135Z AUTO 00000KT 10SM OVC008 18/17 A3010 RMK AO2 T01750173
K11R 241115Z AUTO 19003KT 10SM BKN008 OVC012 18/17 A3010 RMK AO2 T01750172
K11R 241055Z AUTO 16004KT 10SM BKN012 OVC025 18/17 A3009 RMK AO2 T01750171
K11R 241035Z AUTO 15004KT 10SM SCT014 SCT019 OVC025 17/17 A3009 RMK AO2 T01730171
K11R 241015Z AUTO 15005KT 10SM SCT014 BKN026 OVC050 17/17 A3008 RMK AO2 T01710170
K11R 240955Z AUTO 15005KT 10SM SCT021 OVC048 17/17 A3008 RMK AO2 T01680167
K11R 240935Z AUTO 15005KT 10SM SCT021 OVC050 17/17 A3009 RMK AO2 T01670166
K11R 240915Z AUTO 14003KT 10SM BKN023 OVC050 17/17 A3009 RMK AO2 T01660165
K11R 240855Z AUTO 13003KT 10SM BKN025 BKN030 OVC055 17/17 A3009 RMK AO2 T01660165
K11R 240835Z AUTO 15004KT 10SM OVC025 17/16 A3009 RMK AO2 LTG DSNT SE T01650163
K11R 240815Z AUTO 14003KT 10SM BKN025 OVC060 17/16 A3009 RMK AO2 T01660163
K11R 240755Z AUTO 14003KT 10SM SCT025 OVC060 17/16 A3010 RMK AO2 T01670163
K11R 240735Z AUTO 14004KT 10SM SCT025 BKN060 17/16 A3010 RMK AO2 T01670161
K11R 240715Z AUTO 13004KT 10SM SCT025 BKN060 17/16 A3010 RMK AO2 T01700164
K11R 240655Z AUTO 15004KT 10SM SCT060 17/16 A3010 RMK AO2 T01680161
K11R 240635Z AUTO 13005KT 10SM SCT060 17/16 A3010 RMK AO2 T01700159
K11R 240615Z AUTO 14005KT 10SM CLR 17/16 A3010 RMK AO2 T01720155
K11R 240555Z AUTO 15005KT 10SM CLR 18/16 A3011 RMK AO2 T01770155 10220 20177 402460142
K11R 240535Z AUTO 15005KT 10SM CLR 18/16 A3010 RMK AO2 T01800155
K11R 240515Z AUTO 15006KT 10SM CLR 18/16 A3010 RMK AO2 T01820156
K11R 240455Z AUTO 16006KT 10SM SCT042 SCT060 19/16 A3011 RMK AO2 T01850157
K11R 240435Z AUTO 16007KT 10SM SCT042 BKN060 19/16 A3011 RMK AO2 T01900158
K11R 240415Z AUTO 16007KT 10SM BKN042 19/16 A3011 RMK AO2 T01900158
K11R 240355Z AUTO 16008KT 10SM SCT027 SCT032 OVC042 19/16 A3012 RMK AO2 T01930158
K11R 240335Z AUTO 16006KT 10SM BKN029 BKN035 OVC042 20/16 A3013 RMK AO2 T01950158
K11R 240315Z AUTO 16006KT 10SM SCT031 OVC038 20/16 A3013 RMK AO2 T01970157
K11R 240255Z AUTO 17007KT 10SM BKN026 BKN035 OVC040 20/16 A3012 RMK AO2 T02000157
K11R 240235Z AUTO 15006KT 10SM OVC026 20/16 A3011 RMK AO2 T02000158
K11R 240215Z AUTO 15006KT 10SM BKN026 OVC032 20/16 A3010 RMK AO2 T02010159
K11R 240155Z AUTO 15007KT 10SM OVC032 21/16 A3009 RMK AO2 T02050159
K11R 240135Z AUTO 15009G14KT 10SM OVC034 21/16 A3008 RMK AO2 T02070159
K11R 240115Z AUTO 15008G15KT 10SM OVC036 21/16 A3007 RMK AO2 T02110157
K11R 240055Z AUTO 15010KT 10SM OVC036 22/16 A3007 RMK AO2 T02150157
K11R 240035Z AUTO 15011G14KT 10SM BKN035 BKN040 OVC047 22/16 A3006 RMK AO2 T02160156
K11R 240015Z AUTO 14009KT 10SM SCT035 BKN046 BKN055 22/16 A3006 RMK AO2 T02180159
K11R 232355Z AUTO 14010G15KT 10SM SCT035 BKN042 BKN060 22/16 A3006 RMK AO2 T02200158 10246 20208
K11R 232335Z AUTO 14010G14KT 10SM SCT037 BKN043 OVC050 23/16 A3006 RMK AO2 T02270160
K11R 232315Z AUTO 14011G14KT 10SM SCT035 SCT043 OVC050 23/16 A3006 RMK AO2 T02300157
K11R 232255Z AUTO 15010G14KT 10SM SCT040 SCT047 OVC055 23/16 A3006 RMK AO2 T02320157
K11R 232235Z AUTO 15011G18KT 10SM BKN039 BKN046 OVC090 24/16 A3006 RMK AO2 T02350156
K11R 232215Z AUTO 15012G17KT 10SM SCT040 OVC055 24/16 A3006 RMK AO2 T02400158
K11R 232155Z AUTO 16011G18KT 10SM SCT039 OVC055 24/15 A3006 RMK AO2 T02390152
K11R 232135Z AUTO 14009G14KT 10SM BKN055 OVC080 24/15 A3007 RMK AO2 T02390151
K11R 232115Z AUTO 17011G18KT 10SM SCT047 BKN055 OVC080 25/15 A3007 RMK AO2 T02450151
K11R 232055Z AUTO 17010KT 10SM SCT042 BKN055 OVC070 24/15 A3008 RMK AO2 T02390151
K11R 232035Z AUTO 16009KT 10SM SCT034 SCT042 OVC049 24/15 A3009 RMK AO2 LTG DSNT N T02350154
K11R 232015Z AUTO 15008G15KT 10SM BKN032 OVC047 23/16 A3009 RMK AO2 T02330157
K11R 231955Z AUTO 16010G14KT 10SM BKN027 BKN038 OVC045 23/16 A3010 RMK AO2 T02320162
K11R 231935Z AUTO 15008G14KT 10SM BKN025 BKN030 OVC041 23/17 A3011 RMK AO2 T02300167
K11R 231915Z AUTO 17008G14KT 10SM BKN025 BKN030 OVC075 23/17 A3011 RMK AO2 T02340170
K11R 231855Z AUTO 17010G16KT 10SM SCT025 BKN032 OVC075 22/16 A3012 RMK AO2 T02190162
K11R 231835Z AUTO 15009KT 10SM BKN023 BKN029 OVC075 22/17 A3012 RMK AO2 T02170166
K11R 231815Z AUTO 14010KT 10SM SCT029 OVC075 21/17 A3013 RMK AO2 T02130165
K11R 231755Z AUTO 16009KT 10SM SCT029 OVC075 21/17 A3014 RMK AO2 T02080165 10208 20151
K11R 231735Z AUTO 15009KT 10SM OVC075 20/16 A3014 RMK AO2 T02010162
K11R 231715Z AUTO 14010KT 10SM OVC075 20/16 A3014 RMK AO2 LTG DSNT N T01980161
K11R 231655Z AUTO 14009KT 10SM OVC075 19/16 A3015 RMK AO2 T01930159
K11R 231635Z AUTO 14008KT 10SM BKN075 OVC090 19/16 A3015 RMK AO2 LTG DSNT N T01910158
K11R 231615Z AUTO 13008KT 10SM SCT075 OVC090 19/16 A3015 RMK AO2 LTG DSNT N AND NW T01860156
K11R 231555Z AUTO 14006KT 10SM BKN075 OVC090 18/15 A3016 RMK AO2 LTG DSNT N T01800153
K11R 231535Z AUTO 15007KT 10SM SCT033 BKN075 OVC085 18/15 A3016 RMK AO2 T01770152
K11R 231515Z AUTO 15003KT 10SM SCT033 SCT075 OVC085 17/15 A3016 RMK AO2 LTG DSNT N T01730150
K11R 231455Z AUTO 13004KT 10SM SCT065 OVC085 17/15 A3015 RMK AO2 LTG DSNT N T01720148
K11R 231435Z AUTO 00000KT 10SM BKN065 OVC085 17/16 A3015 RMK AO2 LTG DSNT N T01710160
K11R 231415Z AUTO 12005KT 10SM BKN075 OVC085 17/16 A3014 RMK AO2 LTG DSNT N T01680156
K11R 231355Z AUTO 11004KT 10SM BKN075 OVC085 17/16 A3014 RMK AO2 LTG DSNT N AND NW T01650155
K11R 231335Z AUTO 00000KT 10SM OVC075 16/15 A3013 RMK AO2 T01580152
K11R 231315Z AUTO 00000KT 10SM OVC075 16/15 A3013 RMK AO2 LTG DSNT N T01550150
K11R 231255Z AUTO 13003KT 10SM BKN075 15/15 A3012 RMK AO2 T01520148
K11R 231235Z AUTO 13003KT 10SM BKN075 15/15 A3010 RMK AO2 T01520147
K11R 231215Z AUTO 16003KT 10SM OVC075 16/15 A3011 RMK AO2 T01550148
K11R 231155Z AUTO 15004KT 10SM OVC075 15/15 A3009 RMK AO2 T01530148 10158 20142
K11R 231135Z AUTO 14003KT 10SM OVC075 15/15 A3008 RMK AO2 T01520147
K11R 231115Z AUTO 14003KT 10SM BKN075 15/15 A3006 RMK AO2 LTG DSNT NW T01480145
K11R 231055Z AUTO 13003KT 10SM SCT075 15/14 A3006 RMK AO2 T01450141
K11R 231035Z AUTO 12004KT 10SM CLR 14/14 A3005 RMK AO2 T01420140
K11R 231015Z AUTO 13003KT 10SM SCT070 14/14 A3005 RMK AO2 T01420138
K11R 230955Z AUTO 12003KT 10SM BKN070 15/14 A3006 RMK AO2 T01460140